Time,TemperatureF,DewpointF,PressureIn,WindDirection,WindDirectionDegrees,WindSpeedMPH,WindSpeedGustMPH,Humidity,HourlyPrecipIn,Conditions,Clouds,dailyrainin,SoftwareType,DateUTC
2013-08-30 00:06:00,78.0,71.0,29.80,SSW,196,0.0,0.0,78,0.00,,,0.00,weatherlink.com 1.10,2013-08-30 05:06:00,
2013-08-30 00:21:00,77.4,70.0,29.81,SSW,198,0.0,0.0,79,0.00,,,0.00,weatherlink.com 1.10,2013-08-30 05:21:00,
2013-08-30 00:36:00,77.2,71.0,29.81,SSW,207,0.0,0.0,80,0.00,,,0.00,weatherlink.com 1.10,2013-08-30 05:36:00,
2013-08-30 00:51:00,77.1,71.0,29.81,SSW,198,0.0,0.0,80,0.00,,,0.00,weatherlink.com 1.10,2013-08-30 05:51:00,
2013-08-30 01:06:00,76.8,71.0,29.81,SSW,208,0.0,0.0,81,0.00,,,0.00,weatherlink.com 1.10,2013-08-30 06:06:00,
2013-08-30 01:21:00,76.6,71.0,29.81,SSW,194,0.0,0.0,82,0.00,,,0.00,weatherlink.com 1.10,2013-08-30 06:21:00,
2013-08-30 01:36:00,76.0,71.0,29.81,SSW,204,0.0,0.0,83,0.00,,,0.00,weatherlink.com 1.10,2013-08-30 06:36:00,
2013-08-30 01:51:00,75.7,71.0,29.81,South,177,0.0,0.0,84,0.00,,,0.00,weatherlink.com 1.10,2013-08-30 06:51:00,
2013-08-30 02:06:00,75.9,70.0,29.80,SSW,205,0.0,0.0,83,0.00,,,0.00,weatherlink.com 1.10,2013-08-30 07:06:00,
2013-08-30 02:21:00,76.2,71.0,29.80,South,189,0.0,0.0,83,0.00,,,0.00,weatherlink.com 1.10,2013-08-30 07:21:00,
2013-08-30 02:36:00,76.2,70.0,29.80,South,188,0.0,0.0,82,0.00,,,0.00,weatherlink.com 1.10,2013-08-30 07:36:00,
2013-08-30 02:51:00,76.2,70.0,29.80,SSW,210,0.0,0.0,82,0.00,,,0.00,weatherlink.com 1.10,2013-08-30 07:51:00,
2013-08-30 03:06:00,76.0,71.0,29.80,SSW,202,0.0,0.0,83,0.00,,,0.00,weatherlink.com 1.10,2013-08-30 08:06:00,
2013-08-30 03:21:00,75.8,70.0,29.80,SSW,200,0.0,0.0,83,0.00,,,0.00,weatherlink.com 1.10,2013-08-30 08:21:00,
2013-08-30 03:36:00,75.4,70.0,29.80,SSW,211,0.0,0.0,84,0.00,,,0.00,weatherlink.com 1.10,2013-08-30 08:36:00,
2013-08-30 03:51:00,75.1,70.0,29.79,SSW,197,0.0,0.0,85,0.00,,,0.00,weatherlink.com 1.10,2013-08-30 08:51:00,
2013-08-30 04:06:00,74.8,70.0,29.79,SSW,195,0.0,0.0,86,0.00,,,0.00,weatherlink.com 1.10,2013-08-30 09:06:00,
2013-08-30 04:21:00,74.4,70.0,29.79,SSW,192,0.0,0.0,86,0.00,,,0.00,weatherlink.com 1.10,2013-08-30 09:21:00,
2013-08-30 04:36:00,74.4,70.0,29.78,SSW,204,0.0,0.0,87,0.00,,,0.00,weatherlink.com 1.10,2013-08-30 09:36:00,
2013-08-30 04:51:00,74.4,70.0,29.78,SSW,193,0.0,0.0,87,0.00,,,0.00,weatherlink.com 1.10,2013-08-30 09:51:00,
2013-08-30 05:06:00,74.6,71.0,29.78,SSW,204,0.0,0.0,87,0.00,,,0.00,weatherlink.com 1.10,2013-08-30 10:06:00,
2013-08-30 05:21:00,74.4,71.0,29.78,South,182,0.0,0.0,88,0.00,,,0.00,weatherlink.com 1.10,2013-08-30 10:21:00,
2013-08-30 05:36:00,74.2,71.0,29.78,SSW,196,0.0,0.0,89,0.00,,,0.00,weatherlink.com 1.10,2013-08-30 10:36:00,
2013-08-30 05:51:00,74.1,71.0,29.79,SSW,192,0.0,0.0,89,0.00,,,0.00,weatherlink.com 1.10,2013-08-30 10:51:00,
2013-08-30 06:06:00,73.7,70.0,29.79,SW,230,0.0,0.0,89,0.00,,,0.00,weatherlink.com 1.10,2013-08-30 11:06:00,
2013-08-30 06:21:00,73.5,71.0,29.79,South,182,0.0,0.0,90,0.00,,,0.00,weatherlink.com 1.10,2013-08-30 11:21:00,
2013-08-30 06:36:00,73.4,70.0,29.79,SSW,211,0.0,0.0,90,0.00,,,0.00,weatherlink.com 1.10,2013-08-30 11:36:00,
2013-08-30 06:51:00,73.4,71.0,29.79,SSW,199,0.0,0.0,91,0.00,,,0.00,weatherlink.com 1.10,2013-08-30 11:51:00,
2013-08-30 07:06:00,73.3,71.0,29.79,SSW,197,0.0,0.0,91,0.00,,,0.00,weatherlink.com 1.10,2013-08-30 12:06:00,
2013-08-30 07:21:00,73.5,71.0,29.79,SSW,196,0.0,0.0,91,0.00,,,0.00,weatherlink.com 1.10,2013-08-30 12:21:00,
2013-08-30 07:36:00,73.9,71.0,29.79,SSW,205,0.0,0.0,90,0.00,,,0.00,weatherlink.com 1.10,2013-08-30 12:36:00,
2013-08-30 07:51:00,74.7,71.0,29.79,SSW,207,0.0,0.0,89,0.00,,,0.00,weatherlink.com 1.10,2013-08-30 12:51:00,
2013-08-30 08:06:00,75.9,72.0,29.79,SW,219,0.0,0.0,88,0.00,,,0.00,weatherlink.com 1.10,2013-08-30 13:06:00,
2013-08-30 08:21:00,77.3,73.0,29.79,West,266,0.0,0.0,85,0.00,,,0.00,weatherlink.com 1.10,2013-08-30 13:21:00,
2013-08-30 08:37:00,77.9,73.0,29.80,NNW,329,0.0,0.0,85,0.00,,,0.00,weatherlink.com 1.10,2013-08-30 13:37:00,
2013-08-30 08:52:00,78.4,73.0,29.80,NNW,328,0.0,0.0,84,0.00,,,0.00,weatherlink.com 1.10,2013-08-30 13:52:00,
2013-08-30 09:07:00,78.9,74.0,29.80,NNW,329,0.0,0.0,84,0.00,,,0.00,weatherlink.com 1.10,2013-08-30 14:07:00,
2013-08-30 09:22:00,79.5,74.0,29.79,North,355,0.0,0.0,83,0.00,,,0.00,weatherlink.com 1.10,2013-08-30 14:22:00,
2013-08-30 09:37:00,80.4,75.0,29.79,NW,321,0.0,0.0,82,0.00,,,0.00,weatherlink.com 1.10,2013-08-30 14:37:00,
2013-08-30 09:52:00,81.4,74.0,29.80,NE,45,0.0,0.0,79,0.00,,,0.00,weatherlink.com 1.10,2013-08-30 14:52:00,
2013-08-30 10:07:00,80.7,74.0,29.80,NE,46,0.0,0.0,81,0.00,,,0.00,weatherlink.com 1.10,2013-08-30 15:07:00,
2013-08-30 10:22:00,81.8,74.0,29.80,NNW,342,0.0,0.0,78,0.00,,,0.00,weatherlink.com 1.10,2013-08-30 15:22:00,
2013-08-30 10:37:00,83.0,75.0,29.80,NW,315,0.0,0.0,76,0.00,,,0.00,weatherlink.com 1.10,2013-08-30 15:37:00,
2013-08-30 10:52:00,83.8,75.0,29.80,North,350,0.0,0.0,75,0.00,,,0.00,weatherlink.com 1.10,2013-08-30 15:52:00,
2013-08-30 11:07:00,85.4,75.0,29.80,North,11,0.0,0.0,72,0.00,,,0.00,weatherlink.com 1.10,2013-08-30 16:07:00,
2013-08-30 11:22:00,85.4,75.0,29.80,NE,43,0.0,0.0,72,0.00,,,0.00,weatherlink.com 1.10,2013-08-30 16:22:00,
2013-08-30 11:37:00,85.9,76.0,29.80,ENE,68,0.0,0.0,71,0.00,,,0.00,weatherlink.com 1.10,2013-08-30 16:37:00,
2013-08-30 11:52:00,85.7,74.0,29.79,NNE,19,0.0,0.0,69,0.00,,,0.00,weatherlink.com 1.10,2013-08-30 16:52:00,
2013-08-30 12:07:00,86.3,75.0,29.79,North,11,0.0,0.0,69,0.00,,,0.00,weatherlink.com 1.10,2013-08-30 17:07:00,
2013-08-30 12:22:00,86.4,75.0,29.79,North,5,0.0,0.0,68,0.00,,,0.00,weatherlink.com 1.10,2013-08-30 17:22:00,
2013-08-30 12:52:00,86.8,73.0,29.79,North,355,0.0,0.0,64,0.00,,,0.00,weatherlink.com 1.10,2013-08-30 17:52:00,
2013-08-30 13:07:00,87.1,72.0,29.79,NNW,333,0.0,0.0,62,0.00,,,0.00,weatherlink.com 1.10,2013-08-30 18:07:00,
2013-08-30 13:22:00,87.5,72.0,29.79,North,5,0.0,0.0,61,0.00,,,0.00,weatherlink.com 1.10,2013-08-30 18:22:00,
2013-08-30 13:37:00,87.4,73.0,29.79,NE,49,0.0,0.0,63,0.00,,,0.00,weatherlink.com 1.10,2013-08-30 18:37:00,
2013-08-30 13:52:00,87.2,73.0,29.79,NW,317,0.0,0.0,63,0.00,,,0.00,weatherlink.com 1.10,2013-08-30 18:52:00,
2013-08-30 14:07:00,87.3,73.0,29.79,North,5,0.0,0.0,63,0.00,,,0.00,weatherlink.com 1.10,2013-08-30 19:07:00,
2013-08-30 14:22:00,87.7,74.0,29.79,East,80,0.0,0.0,64,0.00,,,0.00,weatherlink.com 1.10,2013-08-30 19:22:00,
2013-08-30 14:37:00,86.7,74.0,29.79,North,360,0.0,0.0,65,0.00,,,0.00,weatherlink.com 1.10,2013-08-30 19:37:00,
2013-08-30 14:52:00,85.7,74.0,29.79,NNE,12,0.0,0.0,67,0.00,,,0.00,weatherlink.com 1.10,2013-08-30 19:52:00,
2013-08-30 15:07:00,84.2,74.0,29.79,NNE,24,0.0,0.0,71,0.00,,,0.00,weatherlink.com 1.10,2013-08-30 20:07:00,
2013-08-30 15:22:00,84.2,74.0,29.79,NE,42,0.0,0.0,71,0.00,,,0.00,weatherlink.com 1.10,2013-08-30 20:22:00,
2013-08-30 15:37:00,85.1,74.0,29.79,NNW,340,0.0,0.0,69,0.00,,,0.00,weatherlink.com 1.10,2013-08-30 20:37:00,
2013-08-30 15:52:00,84.1,73.0,29.79,North,5,0.0,0.0,69,0.00,,,0.00,weatherlink.com 1.10,2013-08-30 20:52:00,
2013-08-30 16:07:00,83.9,73.0,29.79,ENE,64,0.0,0.0,69,0.00,,,0.00,weatherlink.com 1.10,2013-08-30 21:07:00,
2013-08-30 16:22:00,83.6,72.0,29.79,NNE,12,0.0,0.0,68,0.00,,,0.00,weatherlink.com 1.10,2013-08-30 21:22:00,
2013-08-30 16:37:00,82.6,71.0,29.79,North,355,0.0,0.0,68,0.00,,,0.00,weatherlink.com 1.10,2013-08-30 21:37:00,
2013-08-30 16:52:00,82.9,71.0,29.79,North,351,0.0,0.0,67,0.00,,,0.00,weatherlink.com 1.10,2013-08-30 21:52:00,
2013-08-30 17:07:00,82.8,72.0,29.78,NNE,24,0.0,0.0,69,0.00,,,0.00,weatherlink.com 1.10,2013-08-30 22:07:00,
2013-08-30 17:22:00,82.0,71.0,29.78,North,355,0.0,0.0,70,0.00,,,0.00,weatherlink.com 1.10,2013-08-30 22:22:00,
2013-08-30 17:37:00,82.0,70.0,29.78,NNW,340,0.0,0.0,68,0.00,,,0.00,weatherlink.com 1.10,2013-08-30 22:37:00,
2013-08-30 17:52:00,81.8,71.0,29.78,NW,319,0.0,0.0,69,0.00,,,0.00,weatherlink.com 1.10,2013-08-30 22:52:00,
2013-08-30 18:07:00,81.4,71.0,29.78,NNW,345,0.0,0.0,71,0.00,,,0.00,weatherlink.com 1.10,2013-08-30 23:07:00,
2013-08-30 18:22:00,81.2,71.0,29.78,NNE,13,0.0,0.0,70,0.00,,,0.00,weatherlink.com 1.10,2013-08-30 23:22:00,
2013-08-30 18:37:00,80.8,71.0,29.78,NNW,343,0.0,0.0,71,0.00,,,0.00,weatherlink.com 1.10,2013-08-30 23:37:00,
2013-08-30 18:52:00,80.5,71.0,29.78,NNW,339,0.0,0.0,72,0.00,,,0.00,weatherlink.com 1.10,2013-08-30 23:52:00,
2013-08-30 19:07:00,79.8,70.0,29.78,NNW,344,0.0,0.0,73,0.00,,,0.00,weatherlink.com 1.10,2013-08-31 00:07:00,
2013-08-30 19:22:00,79.1,70.0,29.78,NNW,338,0.0,0.0,74,0.00,,,0.00,weatherlink.com 1.10,2013-08-31 00:22:00,
2013-08-30 19:37:00,78.3,70.0,29.77,NNE,24,0.0,0.0,76,0.00,,,0.00,weatherlink.com 1.10,2013-08-31 00:37:00,
2013-08-30 19:52:00,77.5,70.0,29.77,NNE,14,0.0,0.0,78,0.00,,,0.00,weatherlink.com 1.10,2013-08-31 00:52:00,
2013-08-30 20:07:00,76.8,70.0,29.77,NNE,16,0.0,0.0,79,0.00,,,0.00,weatherlink.com 1.10,2013-08-31 01:07:00,
2013-08-30 20:22:00,76.2,70.0,29.78,NNW,343,0.0,0.0,81,0.00,,,0.00,weatherlink.com 1.10,2013-08-31 01:22:00,
2013-08-30 20:37:00,75.6,70.0,29.78,North,355,0.0,0.0,82,0.00,,,0.00,weatherlink.com 1.10,2013-08-31 01:37:00,
2013-08-30 20:52:00,75.2,70.0,29.78,NNE,12,0.0,0.0,83,0.00,,,0.00,weatherlink.com 1.10,2013-08-31 01:52:00,
2013-08-30 21:07:00,74.8,69.0,29.79,North,5,0.0,0.0,82,0.00,,,0.00,weatherlink.com 1.10,2013-08-31 02:07:00,
2013-08-30 21:22:00,74.4,69.0,29.79,NE,40,0.0,0.0,83,0.00,,,0.00,weatherlink.com 1.10,2013-08-31 02:22:00,
2013-08-30 21:37:00,74.2,68.0,29.79,North,360,0.0,0.0,82,0.00,,,0.00,weatherlink.com 1.10,2013-08-31 02:37:00,
2013-08-30 21:52:00,74.0,68.0,29.79,NNW,338,0.0,0.0,82,0.00,,,0.00,weatherlink.com 1.10,2013-08-31 02:52:00,
2013-08-30 22:07:00,73.8,68.0,29.78,NNE,19,0.0,0.0,82,0.00,,,0.00,weatherlink.com 1.10,2013-08-31 03:07:00,
2013-08-30 22:22:00,73.5,68.0,29.79,NNE,12,0.0,0.0,82,0.00,,,0.00,weatherlink.com 1.10,2013-08-31 03:22:00,
2013-08-30 22:37:00,72.7,68.0,29.78,North,355,0.0,0.0,84,0.00,,,0.00,weatherlink.com 1.10,2013-08-31 03:37:00,
2013-08-30 22:53:00,72.0,68.0,29.79,NNW,346,0.0,0.0,86,0.00,,,0.00,weatherlink.com 1.10,2013-08-31 03:53:00,
2013-08-30 23:08:00,71.7,67.0,29.78,NE,49,0.0,0.0,86,0.00,,,0.00,weatherlink.com 1.10,2013-08-31 04:08:00,
2013-08-30 23:23:00,71.5,67.0,29.78,North,5,0.0,0.0,86,0.00,,,0.00,weatherlink.com 1.10,2013-08-31 04:23:00,
2013-08-30 23:38:00,71.2,67.0,29.78,NNW,341,0.0,0.0,87,0.00,,,0.00,weatherlink.com 1.10,2013-08-31 04:38:00,
2013-08-30 23:53:00,70.7,67.0,29.79,North,360,0.0,0.0,87,0.00,,,0.00,weatherlink.com 1.10,2013-08-31 04:53:00,